sensor_id;sensor_type;location;lat;lon;timestamp;P1;durP1;ratioP1;P2;durP2;ratioP2
81367;SDS011;70823;50.056;14.398;2024-02-21T00:00:43;6.85;;;3.70;;
81367;SDS011;70823;50.056;14.398;2024-02-21T00:03:09;6.65;;;3.53;;
81367;SDS011;70823;50.056;14.398;2024-02-21T00:05:34;7.93;;;3.13;;
81367;SDS011;70823;50.056;14.398;2024-02-21T00:07:59;8.87;;;3.30;;
81367;SDS011;70823;50.056;14.398;2024-02-21T00:10:25;8.55;;;3.60;;
81367;SDS011;70823;50.056;14.398;2024-02-21T00:12:51;9.32;;;3.13;;
81367;SDS011;70823;50.056;14.398;2024-02-21T00:15:16;7.18;;;3.40;;
81367;SDS011;70823;50.056;14.398;2024-02-21T00:17:43;6.25;;;2.95;;
81367;SDS011;70823;50.056;14.398;2024-02-21T00:20:08;6.05;;;3.17;;
81367;SDS011;70823;50.056;14.398;2024-02-21T00:22:34;6.20;;;2.90;;
81367;SDS011;70823;50.056;14.398;2024-02-21T00:24:59;7.23;;;2.87;;
81367;SDS011;70823;50.056;14.398;2024-02-21T00:27:25;7.13;;;2.87;;
81367;SDS011;70823;50.056;14.398;2024-02-21T00:29:50;9.70;;;2.88;;
81367;SDS011;70823;50.056;14.398;2024-02-21T00:32:15;6.50;;;3.30;;
81367;SDS011;70823;50.056;14.398;2024-02-21T00:34:41;7.00;;;3.23;;
81367;SDS011;70823;50.056;14.398;2024-02-21T00:37:06;7.13;;;3.00;;
81367;SDS011;70823;50.056;14.398;2024-02-21T00:39:31;5.50;;;2.90;;
81367;SDS011;70823;50.056;14.398;2024-02-21T00:41:57;6.53;;;2.70;;
81367;SDS011;70823;50.056;14.398;2024-02-21T00:44:22;7.87;;;3.20;;
81367;SDS011;70823;50.056;14.398;2024-02-21T00:46:47;7.20;;;3.03;;
81367;SDS011;70823;50.056;14.398;2024-02-21T00:49:13;7.07;;;3.20;;
81367;SDS011;70823;50.056;14.398;2024-02-21T00:51:38;7.77;;;3.20;;
81367;SDS011;70823;50.056;14.398;2024-02-21T00:54:03;7.03;;;3.10;;
81367;SDS011;70823;50.056;14.398;2024-02-21T00:56:29;6.43;;;2.70;;
81367;SDS011;70823;50.056;14.398;2024-02-21T00:58:55;6.38;;;3.13;;
81367;SDS011;70823;50.056;14.398;2024-02-21T01:01:21;6.20;;;2.55;;
81367;SDS011;70823;50.056;14.398;2024-02-21T01:03:47;5.57;;;2.72;;
81367;SDS011;70823;50.056;14.398;2024-02-21T01:06:13;6.55;;;2.95;;
81367;SDS011;70823;50.056;14.398;2024-02-21T01:08:38;6.95;;;2.50;;
81367;SDS011;70823;50.056;14.398;2024-02-21T01:11:03;7.00;;;2.87;;
81367;SDS011;70823;50.056;14.398;2024-02-21T01:13:29;5.67;;;2.63;;
81367;SDS011;70823;50.056;14.398;2024-02-21T01:15:54;5.30;;;2.88;;
81367;SDS011;70823;50.056;14.398;2024-02-21T01:18:19;6.47;;;2.77;;
81367;SDS011;70823;50.056;14.398;2024-02-21T01:20:45;6.13;;;2.67;;
81367;SDS011;70823;50.056;14.398;2024-02-21T01:23:10;6.50;;;2.90;;
81367;SDS011;70823;50.056;14.398;2024-02-21T01:25:35;6.17;;;2.50;;
81367;SDS011;70823;50.056;14.398;2024-02-21T01:28:00;4.90;;;2.30;;
81367;SDS011;70823;50.056;14.398;2024-02-21T01:30:26;6.60;;;2.77;;
81367;SDS011;70823;50.056;14.398;2024-02-21T01:32:51;5.43;;;2.80;;
81367;SDS011;70823;50.056;14.398;2024-02-21T01:35:16;7.43;;;2.73;;
81367;SDS011;70823;50.056;14.398;2024-02-21T01:37:43;6.03;;;2.72;;
81367;SDS011;70823;50.056;14.398;2024-02-21T01:40:08;5.93;;;2.75;;
81367;SDS011;70823;50.056;14.398;2024-02-21T01:42:37;5.50;;;2.58;;
81367;SDS011;70823;50.056;14.398;2024-02-21T01:45:03;6.28;;;2.38;;
81367;SDS011;70823;50.056;14.398;2024-02-21T01:47:29;5.25;;;2.60;;
81367;SDS011;70823;50.056;14.398;2024-02-21T01:49:54;4.63;;;2.40;;
81367;SDS011;70823;50.056;14.398;2024-02-21T01:52:20;6.70;;;2.55;;
81367;SDS011;70823;50.056;14.398;2024-02-21T01:54:46;4.87;;;2.57;;
81367;SDS011;70823;50.056;14.398;2024-02-21T01:57:11;5.03;;;2.42;;
81367;SDS011;70823;50.056;14.398;2024-02-21T01:59:37;5.07;;;2.63;;
81367;SDS011;70823;50.056;14.398;2024-02-21T02:02:02;5.40;;;2.67;;
81367;SDS011;70823;50.056;14.398;2024-02-21T02:04:27;5.50;;;2.60;;
81367;SDS011;70823;50.056;14.398;2024-02-21T02:06:54;5.18;;;2.33;;
81367;SDS011;70823;50.056;14.398;2024-02-21T02:09:19;6.38;;;2.78;;
81367;SDS011;70823;50.056;14.398;2024-02-21T02:11:45;5.27;;;2.47;;
81367;SDS011;70823;50.056;14.398;2024-02-21T02:14:10;5.23;;;2.70;;
81367;SDS011;70823;50.056;14.398;2024-02-21T02:16:35;6.23;;;2.87;;
81367;SDS011;70823;50.056;14.398;2024-02-21T02:19:01;5.90;;;3.07;;
81367;SDS011;70823;50.056;14.398;2024-02-21T02:21:30;7.70;;;2.50;;
81367;SDS011;70823;50.056;14.398;2024-02-21T02:24:00;6.20;;;2.50;;
81367;SDS011;70823;50.056;14.398;2024-02-21T02:26:25;7.03;;;2.40;;
81367;SDS011;70823;50.056;14.398;2024-02-21T02:28:50;4.60;;;2.53;;
81367;SDS011;70823;50.056;14.398;2024-02-21T02:31:16;5.57;;;2.63;;
81367;SDS011;70823;50.056;14.398;2024-02-21T02:33:44;7.07;;;2.47;;
81367;SDS011;70823;50.056;14.398;2024-02-21T02:36:09;4.95;;;2.25;;
81367;SDS011;70823;50.056;14.398;2024-02-21T02:38:35;4.75;;;2.50;;
81367;SDS011;70823;50.056;14.398;2024-02-21T02:41:00;5.10;;;2.30;;
81367;SDS011;70823;50.056;14.398;2024-02-21T02:43:25;4.45;;;2.55;;
81367;SDS011;70823;50.056;14.398;2024-02-21T02:45:51;4.60;;;2.20;;
81367;SDS011;70823;50.056;14.398;2024-02-21T02:48:16;4.33;;;2.13;;
81367;SDS011;70823;50.056;14.398;2024-02-21T02:50:41;4.77;;;2.20;;
81367;SDS011;70823;50.056;14.398;2024-02-21T02:53:07;5.95;;;2.75;;
81367;SDS011;70823;50.056;14.398;2024-02-21T02:55:32;4.35;;;2.25;;
81367;SDS011;70823;50.056;14.398;2024-02-21T02:57:58;5.10;;;2.30;;
81367;SDS011;70823;50.056;14.398;2024-02-21T03:00:23;5.25;;;2.63;;
81367;SDS011;70823;50.056;14.398;2024-02-21T03:02:49;5.85;;;2.88;;
81367;SDS011;70823;50.056;14.398;2024-02-21T03:05:15;5.30;;;2.28;;
81367;SDS011;70823;50.056;14.398;2024-02-21T03:07:41;4.55;;;2.75;;
81367;SDS011;70823;50.056;14.398;2024-02-21T03:10:07;6.72;;;2.63;;
81367;SDS011;70823;50.056;14.398;2024-02-21T03:12:33;4.20;;;2.25;;
81367;SDS011;70823;50.056;14.398;2024-02-21T03:14:58;5.47;;;2.30;;
81367;SDS011;70823;50.056;14.398;2024-02-21T03:17:24;4.47;;;2.80;;
81367;SDS011;70823;50.056;14.398;2024-02-21T03:19:49;4.55;;;2.10;;
81367;SDS011;70823;50.056;14.398;2024-02-21T03:22:15;4.45;;;2.42;;
81367;SDS011;70823;50.056;14.398;2024-02-21T03:24:41;4.65;;;2.22;;
81367;SDS011;70823;50.056;14.398;2024-02-21T03:27:07;4.82;;;2.20;;
81367;SDS011;70823;50.056;14.398;2024-02-21T03:29:32;4.80;;;2.40;;
81367;SDS011;70823;50.056;14.398;2024-02-21T03:31:57;3.53;;;1.90;;
81367;SDS011;70823;50.056;14.398;2024-02-21T03:34:23;4.77;;;2.07;;
81367;SDS011;70823;50.056;14.398;2024-02-21T03:36:48;4.50;;;2.07;;
81367;SDS011;70823;50.056;14.398;2024-02-21T03:39:13;5.17;;;2.80;;
81367;SDS011;70823;50.056;14.398;2024-02-21T03:41:38;4.17;;;2.00;;
81367;SDS011;70823;50.056;14.398;2024-02-21T03:44:04;5.60;;;2.40;;
81367;SDS011;70823;50.056;14.398;2024-02-21T03:46:30;5.57;;;2.73;;
81367;SDS011;70823;50.056;14.398;2024-02-21T03:48:55;3.97;;;2.00;;
81367;SDS011;70823;50.056;14.398;2024-02-21T03:51:21;5.23;;;2.10;;
81367;SDS011;70823;50.056;14.398;2024-02-21T03:53:46;5.00;;;2.03;;
81367;SDS011;70823;50.056;14.398;2024-02-21T03:56:11;4.60;;;2.10;;
81367;SDS011;70823;50.056;14.398;2024-02-21T03:58:37;3.60;;;2.10;;
81367;SDS011;70823;50.056;14.398;2024-02-21T04:01:02;4.77;;;2.20;;
81367;SDS011;70823;50.056;14.398;2024-02-21T04:03:28;5.93;;;2.30;;
81367;SDS011;70823;50.056;14.398;2024-02-21T04:05:54;4.45;;;2.30;;
81367;SDS011;70823;50.056;14.398;2024-02-21T04:08:19;3.63;;;2.10;;
81367;SDS011;70823;50.056;14.398;2024-02-21T04:10:44;5.40;;;2.20;;
81367;SDS011;70823;50.056;14.398;2024-02-21T04:13:10;3.67;;;2.00;;
81367;SDS011;70823;50.056;14.398;2024-02-21T04:15:35;4.05;;;2.03;;
81367;SDS011;70823;50.056;14.398;2024-02-21T04:18:01;3.93;;;1.97;;
81367;SDS011;70823;50.056;14.398;2024-02-21T04:20:26;4.68;;;2.03;;
81367;SDS011;70823;50.056;14.398;2024-02-21T04:22:52;4.85;;;2.00;;
81367;SDS011;70823;50.056;14.398;2024-02-21T04:25:17;3.87;;;2.00;;
81367;SDS011;70823;50.056;14.398;2024-02-21T04:27:42;3.63;;;2.05;;
81367;SDS011;70823;50.056;14.398;2024-02-21T04:30:09;3.73;;;2.10;;
81367;SDS011;70823;50.056;14.398;2024-02-21T04:32:34;4.43;;;1.90;;
81367;SDS011;70823;50.056;14.398;2024-02-21T04:35:00;3.65;;;1.90;;
81367;SDS011;70823;50.056;14.398;2024-02-21T04:37:25;4.20;;;1.97;;
81367;SDS011;70823;50.056;14.398;2024-02-21T04:39:50;5.27;;;2.20;;
81367;SDS011;70823;50.056;14.398;2024-02-21T04:42:16;4.07;;;2.10;;
81367;SDS011;70823;50.056;14.398;2024-02-21T04:44:41;3.55;;;2.20;;
81367;SDS011;70823;50.056;14.398;2024-02-21T04:47:07;3.88;;;2.30;;
81367;SDS011;70823;50.056;14.398;2024-02-21T04:49:32;3.50;;;2.00;;
81367;SDS011;70823;50.056;14.398;2024-02-21T04:51:58;3.70;;;1.95;;
81367;SDS011;70823;50.056;14.398;2024-02-21T04:54:23;3.60;;;1.87;;
81367;SDS011;70823;50.056;14.398;2024-02-21T04:56:48;3.80;;;2.40;;
81367;SDS011;70823;50.056;14.398;2024-02-21T04:59:14;3.40;;;1.80;;
81367;SDS011;70823;50.056;14.398;2024-02-21T05:01:39;4.35;;;2.10;;
81367;SDS011;70823;50.056;14.398;2024-02-21T05:04:05;3.53;;;1.90;;
81367;SDS011;70823;50.056;14.398;2024-02-21T05:06:30;4.10;;;1.93;;
81367;SDS011;70823;50.056;14.398;2024-02-21T05:08:55;4.77;;;2.00;;
81367;SDS011;70823;50.056;14.398;2024-02-21T05:11:22;3.85;;;1.92;;
81367;SDS011;70823;50.056;14.398;2024-02-21T05:13:48;3.87;;;1.90;;
81367;SDS011;70823;50.056;14.398;2024-02-21T05:16:13;4.70;;;1.90;;
81367;SDS011;70823;50.056;14.398;2024-02-21T05:18:39;3.63;;;1.88;;
81367;SDS011;70823;50.056;14.398;2024-02-21T05:21:05;5.30;;;2.00;;
81367;SDS011;70823;50.056;14.398;2024-02-21T05:23:30;4.27;;;1.90;;
81367;SDS011;70823;50.056;14.398;2024-02-21T05:25:56;3.40;;;1.80;;
81367;SDS011;70823;50.056;14.398;2024-02-21T05:28:21;3.97;;;2.17;;
81367;SDS011;70823;50.056;14.398;2024-02-21T05:30:46;4.03;;;1.80;;
81367;SDS011;70823;50.056;14.398;2024-02-21T05:33:12;3.95;;;2.33;;
81367;SDS011;70823;50.056;14.398;2024-02-21T05:35:37;3.65;;;1.83;;
81367;SDS011;70823;50.056;14.398;2024-02-21T05:38:03;3.42;;;1.80;;
81367;SDS011;70823;50.056;14.398;2024-02-21T05:40:36;4.50;;;1.92;;
81367;SDS011;70823;50.056;14.398;2024-02-21T05:43:01;4.63;;;2.10;;
81367;SDS011;70823;50.056;14.398;2024-02-21T05:45:27;5.47;;;2.40;;
81367;SDS011;70823;50.056;14.398;2024-02-21T05:47:52;5.90;;;2.10;;
81367;SDS011;70823;50.056;14.398;2024-02-21T05:50:17;4.30;;;2.10;;
81367;SDS011;70823;50.056;14.398;2024-02-21T05:52:42;4.37;;;1.90;;
81367;SDS011;70823;50.056;14.398;2024-02-21T05:55:08;3.95;;;2.00;;
81367;SDS011;70823;50.056;14.398;2024-02-21T05:57:36;3.00;;;1.95;;
81367;SDS011;70823;50.056;14.398;2024-02-21T06:00:05;6.57;;;2.23;;
81367;SDS011;70823;50.056;14.398;2024-02-21T06:02:31;4.43;;;1.90;;
81367;SDS011;70823;50.056;14.398;2024-02-21T06:04:56;5.10;;;1.90;;
81367;SDS011;70823;50.056;14.398;2024-02-21T06:07:21;4.70;;;2.30;;
81367;SDS011;70823;50.056;14.398;2024-02-21T06:09:47;5.60;;;1.90;;
81367;SDS011;70823;50.056;14.398;2024-02-21T06:12:12;3.50;;;1.83;;
81367;SDS011;70823;50.056;14.398;2024-02-21T06:14:37;4.47;;;2.30;;
81367;SDS011;70823;50.056;14.398;2024-02-21T06:17:03;6.65;;;3.10;;
81367;SDS011;70823;50.056;14.398;2024-02-21T06:19:28;5.90;;;2.30;;
81367;SDS011;70823;50.056;14.398;2024-02-21T06:21:53;5.40;;;2.40;;
81367;SDS011;70823;50.056;14.398;2024-02-21T06:24:19;4.23;;;2.23;;
81367;SDS011;70823;50.056;14.398;2024-02-21T06:26:44;6.47;;;2.45;;
81367;SDS011;70823;50.056;14.398;2024-02-21T06:29:10;6.85;;;2.92;;
81367;SDS011;70823;50.056;14.398;2024-02-21T06:31:36;6.10;;;2.60;;
81367;SDS011;70823;50.056;14.398;2024-02-21T06:34:01;6.28;;;2.55;;
81367;SDS011;70823;50.056;14.398;2024-02-21T06:36:27;5.60;;;2.50;;
81367;SDS011;70823;50.056;14.398;2024-02-21T06:38:52;4.83;;;2.30;;
81367;SDS011;70823;50.056;14.398;2024-02-21T06:41:18;6.53;;;2.20;;
81367;SDS011;70823;50.056;14.398;2024-02-21T06:43:44;6.80;;;2.65;;
81367;SDS011;70823;50.056;14.398;2024-02-21T06:46:26;5.85;;;2.38;;
81367;SDS011;70823;50.056;14.398;2024-02-21T06:48:53;8.30;;;2.63;;
81367;SDS011;70823;50.056;14.398;2024-02-21T06:51:18;7.55;;;2.47;;
81367;SDS011;70823;50.056;14.398;2024-02-21T06:53:44;6.72;;;2.53;;
81367;SDS011;70823;50.056;14.398;2024-02-21T06:56:09;6.68;;;2.65;;
81367;SDS011;70823;50.056;14.398;2024-02-21T06:58:35;6.03;;;2.55;;
81367;SDS011;70823;50.056;14.398;2024-02-21T07:01:01;5.88;;;2.33;;
81367;SDS011;70823;50.056;14.398;2024-02-21T07:03:26;6.38;;;2.63;;
81367;SDS011;70823;50.056;14.398;2024-02-21T07:05:52;5.83;;;2.47;;
81367;SDS011;70823;50.056;14.398;2024-02-21T07:08:17;7.95;;;2.50;;
81367;SDS011;70823;50.056;14.398;2024-02-21T07:10:42;7.33;;;3.00;;
81367;SDS011;70823;50.056;14.398;2024-02-21T07:13:07;7.63;;;2.53;;
81367;SDS011;70823;50.056;14.398;2024-02-21T07:15:33;6.20;;;2.23;;
81367;SDS011;70823;50.056;14.398;2024-02-21T07:17:58;4.00;;;2.53;;
81367;SDS011;70823;50.056;14.398;2024-02-21T07:20:24;6.78;;;2.40;;
81367;SDS011;70823;50.056;14.398;2024-02-21T07:22:49;5.43;;;2.07;;
81367;SDS011;70823;50.056;14.398;2024-02-21T07:25:14;5.47;;;2.30;;
81367;SDS011;70823;50.056;14.398;2024-02-21T07:27:40;4.03;;;2.30;;
81367;SDS011;70823;50.056;14.398;2024-02-21T07:30:05;5.10;;;2.17;;
81367;SDS011;70823;50.056;14.398;2024-02-21T07:32:31;7.70;;;2.38;;
81367;SDS011;70823;50.056;14.398;2024-02-21T07:34:56;6.17;;;2.30;;
81367;SDS011;70823;50.056;14.398;2024-02-21T07:37:22;7.33;;;2.37;;
81367;SDS011;70823;50.056;14.398;2024-02-21T07:39:47;3.50;;;1.90;;
81367;SDS011;70823;50.056;14.398;2024-02-21T07:42:12;6.13;;;2.73;;
81367;SDS011;70823;50.056;14.398;2024-02-21T07:44:38;5.00;;;2.17;;
81367;SDS011;70823;50.056;14.398;2024-02-21T07:47:03;4.90;;;1.90;;
81367;SDS011;70823;50.056;14.398;2024-02-21T07:49:28;5.15;;;2.25;;
81367;SDS011;70823;50.056;14.398;2024-02-21T07:51:54;5.30;;;2.70;;
81367;SDS011;70823;50.056;14.398;2024-02-21T07:54:19;5.60;;;2.87;;
81367;SDS011;70823;50.056;14.398;2024-02-21T07:56:44;7.40;;;2.20;;
81367;SDS011;70823;50.056;14.398;2024-02-21T07:59:09;3.80;;;2.03;;
81367;SDS011;70823;50.056;14.398;2024-02-21T08:01:35;5.07;;;2.13;;
81367;SDS011;70823;50.056;14.398;2024-02-21T08:04:00;4.13;;;2.50;;
81367;SDS011;70823;50.056;14.398;2024-02-21T08:06:27;4.57;;;2.38;;
81367;SDS011;70823;50.056;14.398;2024-02-21T08:08:53;5.32;;;2.17;;
81367;SDS011;70823;50.056;14.398;2024-02-21T08:11:18;4.70;;;2.15;;
81367;SDS011;70823;50.056;14.398;2024-02-21T08:13:43;3.87;;;1.93;;
81367;SDS011;70823;50.056;14.398;2024-02-21T08:16:08;4.80;;;2.50;;
81367;SDS011;70823;50.056;14.398;2024-02-21T08:18:34;5.50;;;2.43;;
81367;SDS011;70823;50.056;14.398;2024-02-21T08:21:03;4.85;;;2.15;;
81367;SDS011;70823;50.056;14.398;2024-02-21T08:23:29;7.65;;;2.30;;
81367;SDS011;70823;50.056;14.398;2024-02-21T08:25:54;4.60;;;2.20;;
81367;SDS011;70823;50.056;14.398;2024-02-21T08:28:19;4.55;;;2.25;;
81367;SDS011;70823;50.056;14.398;2024-02-21T08:30:44;3.90;;;1.90;;
81367;SDS011;70823;50.056;14.398;2024-02-21T08:33:12;5.28;;;2.00;;
81367;SDS011;70823;50.056;14.398;2024-02-21T08:35:38;3.80;;;1.85;;
81367;SDS011;70823;50.056;14.398;2024-02-21T08:38:03;6.40;;;2.33;;
81367;SDS011;70823;50.056;14.398;2024-02-21T08:40:29;4.83;;;2.30;;
81367;SDS011;70823;50.056;14.398;2024-02-21T08:42:54;3.60;;;2.00;;
81367;SDS011;70823;50.056;14.398;2024-02-21T08:45:19;5.60;;;2.30;;
81367;SDS011;70823;50.056;14.398;2024-02-21T08:47:44;3.47;;;1.95;;
81367;SDS011;70823;50.056;14.398;2024-02-21T08:50:10;6.70;;;2.33;;
81367;SDS011;70823;50.056;14.398;2024-02-21T08:52:36;3.65;;;1.90;;
81367;SDS011;70823;50.056;14.398;2024-02-21T08:55:01;4.43;;;2.20;;
81367;SDS011;70823;50.056;14.398;2024-02-21T08:57:26;5.00;;;2.40;;
81367;SDS011;70823;50.056;14.398;2024-02-21T08:59:52;5.22;;;2.38;;
81367;SDS011;70823;50.056;14.398;2024-02-21T09:02:17;5.07;;;2.17;;
81367;SDS011;70823;50.056;14.398;2024-02-21T09:04:43;5.10;;;2.87;;
81367;SDS011;70823;50.056;14.398;2024-02-21T09:07:11;6.97;;;2.30;;
81367;SDS011;70823;50.056;14.398;2024-02-21T09:09:36;4.50;;;2.03;;
81367;SDS011;70823;50.056;14.398;2024-02-21T09:12:04;5.50;;;2.22;;
81367;SDS011;70823;50.056;14.398;2024-02-21T09:14:34;4.13;;;2.10;;
81367;SDS011;70823;50.056;14.398;2024-02-21T09:17:02;5.38;;;2.13;;
81367;SDS011;70823;50.056;14.398;2024-02-21T09:19:28;3.90;;;2.03;;
81367;SDS011;70823;50.056;14.398;2024-02-21T09:21:53;5.00;;;2.30;;
81367;SDS011;70823;50.056;14.398;2024-02-21T09:24:19;4.60;;;2.10;;
81367;SDS011;70823;50.056;14.398;2024-02-21T09:26:44;4.37;;;1.90;;
81367;SDS011;70823;50.056;14.398;2024-02-21T09:29:09;3.97;;;2.15;;
81367;SDS011;70823;50.056;14.398;2024-02-21T09:31:35;4.85;;;2.20;;
81367;SDS011;70823;50.056;14.398;2024-02-21T09:34:00;4.22;;;2.35;;
81367;SDS011;70823;50.056;14.398;2024-02-21T09:36:26;3.80;;;1.95;;
81367;SDS011;70823;50.056;14.398;2024-02-21T09:38:51;6.18;;;2.30;;
81367;SDS011;70823;50.056;14.398;2024-02-21T09:41:23;4.18;;;2.20;;
81367;SDS011;70823;50.056;14.398;2024-02-21T09:43:50;4.97;;;2.22;;
81367;SDS011;70823;50.056;14.398;2024-02-21T09:46:18;4.82;;;1.90;;
81367;SDS011;70823;50.056;14.398;2024-02-21T09:51:32;3.47;;;2.03;;
81367;SDS011;70823;50.056;14.398;2024-02-21T09:56:24;4.47;;;2.10;;
81367;SDS011;70823;50.056;14.398;2024-02-21T09:58:50;4.67;;;1.93;;
81367;SDS011;70823;50.056;14.398;2024-02-21T10:01:15;4.63;;;2.10;;
81367;SDS011;70823;50.056;14.398;2024-02-21T10:03:41;3.95;;;2.30;;
81367;SDS011;70823;50.056;14.398;2024-02-21T10:06:08;4.15;;;1.90;;
81367;SDS011;70823;50.056;14.398;2024-02-21T10:08:33;4.93;;;2.10;;
81367;SDS011;70823;50.056;14.398;2024-02-21T10:10:59;4.30;;;2.00;;
81367;SDS011;70823;50.056;14.398;2024-02-21T10:13:26;4.80;;;2.10;;
81367;SDS011;70823;50.056;14.398;2024-02-21T10:16:07;4.35;;;2.05;;
81367;SDS011;70823;50.056;14.398;2024-02-21T10:18:33;3.50;;;1.88;;
81367;SDS011;70823;50.056;14.398;2024-02-21T10:21:00;3.95;;;2.38;;
81367;SDS011;70823;50.056;14.398;2024-02-21T10:26:26;3.05;;;1.90;;
81367;SDS011;70823;50.056;14.398;2024-02-21T10:28:51;4.10;;;2.13;;
81367;SDS011;70823;50.056;14.398;2024-02-21T10:31:22;4.07;;;1.85;;
81367;SDS011;70823;50.056;14.398;2024-02-21T10:36:20;4.13;;;2.05;;
81367;SDS011;70823;50.056;14.398;2024-02-21T10:38:45;4.10;;;1.90;;
81367;SDS011;70823;50.056;14.398;2024-02-21T10:41:12;3.00;;;1.77;;
81367;SDS011;70823;50.056;14.398;2024-02-21T10:43:39;3.85;;;2.22;;
81367;SDS011;70823;50.056;14.398;2024-02-21T10:46:08;3.50;;;2.00;;
81367;SDS011;70823;50.056;14.398;2024-02-21T10:48:43;4.05;;;2.00;;
81367;SDS011;70823;50.056;14.398;2024-02-21T10:56:16;3.58;;;1.83;;
81367;SDS011;70823;50.056;14.398;2024-02-21T10:58:47;3.00;;;1.58;;
81367;SDS011;70823;50.056;14.398;2024-02-21T11:01:13;3.67;;;1.70;;
81367;SDS011;70823;50.056;14.398;2024-02-21T11:03:40;3.53;;;1.80;;
81367;SDS011;70823;50.056;14.398;2024-02-21T11:06:06;4.70;;;2.03;;
81367;SDS011;70823;50.056;14.398;2024-02-21T11:08:33;4.85;;;2.30;;
81367;SDS011;70823;50.056;14.398;2024-02-21T11:10:58;4.27;;;2.20;;
81367;SDS011;70823;50.056;14.398;2024-02-21T11:14:03;4.93;;;1.98;;
81367;SDS011;70823;50.056;14.398;2024-02-21T11:16:22;4.63;;;2.42;;
81367;SDS011;70823;50.056;14.398;2024-02-21T11:18:48;3.47;;;1.80;;
81367;SDS011;70823;50.056;14.398;2024-02-21T11:21:13;3.13;;;1.90;;
81367;SDS011;70823;50.056;14.398;2024-02-21T11:23:39;4.35;;;1.90;;
81367;SDS011;70823;50.056;14.398;2024-02-21T11:26:05;4.30;;;1.90;;
81367;SDS011;70823;50.056;14.398;2024-02-21T11:28:44;4.93;;;1.88;;
81367;SDS011;70823;50.056;14.398;2024-02-21T11:31:13;3.63;;;1.90;;
81367;SDS011;70823;50.056;14.398;2024-02-21T11:33:42;4.28;;;1.92;;
81367;SDS011;70823;50.056;14.398;2024-02-21T11:36:08;4.97;;;2.20;;
81367;SDS011;70823;50.056;14.398;2024-02-21T11:38:34;3.40;;;2.00;;
81367;SDS011;70823;50.056;14.398;2024-02-21T11:40:59;3.30;;;2.13;;
81367;SDS011;70823;50.056;14.398;2024-02-21T11:43:25;3.20;;;2.50;;
81367;SDS011;70823;50.056;14.398;2024-02-21T11:45:50;3.53;;;1.98;;
81367;SDS011;70823;50.056;14.398;2024-02-21T11:48:16;4.45;;;2.10;;
81367;SDS011;70823;50.056;14.398;2024-02-21T11:50:41;3.70;;;1.90;;
81367;SDS011;70823;50.056;14.398;2024-02-21T11:53:07;4.38;;;1.98;;
81367;SDS011;70823;50.056;14.398;2024-02-21T11:55:32;4.03;;;2.17;;
81367;SDS011;70823;50.056;14.398;2024-02-21T11:57:57;3.23;;;1.83;;
81367;SDS011;70823;50.056;14.398;2024-02-21T12:00:23;3.43;;;1.80;;
81367;SDS011;70823;50.056;14.398;2024-02-21T12:02:51;4.00;;;2.42;;
81367;SDS011;70823;50.056;14.398;2024-02-21T12:05:18;3.65;;;2.10;;
81367;SDS011;70823;50.056;14.398;2024-02-21T12:07:44;3.60;;;1.90;;
81367;SDS011;70823;50.056;14.398;2024-02-21T12:10:10;3.40;;;1.75;;
81367;SDS011;70823;50.056;14.398;2024-02-21T12:12:39;3.55;;;1.90;;
81367;SDS011;70823;50.056;14.398;2024-02-21T12:15:05;3.70;;;1.90;;
81367;SDS011;70823;50.056;14.398;2024-02-21T12:17:32;4.68;;;2.33;;
81367;SDS011;70823;50.056;14.398;2024-02-21T12:20:03;3.38;;;1.88;;
81367;SDS011;70823;50.056;14.398;2024-02-21T12:22:36;3.50;;;1.90;;
81367;SDS011;70823;50.056;14.398;2024-02-21T12:25:03;3.88;;;1.80;;
81367;SDS011;70823;50.056;14.398;2024-02-21T12:27:29;4.25;;;2.17;;
81367;SDS011;70823;50.056;14.398;2024-02-21T12:29:54;3.75;;;2.13;;
81367;SDS011;70823;50.056;14.398;2024-02-21T12:32:20;3.97;;;1.98;;
81367;SDS011;70823;50.056;14.398;2024-02-21T12:34:45;3.38;;;1.90;;
81367;SDS011;70823;50.056;14.398;2024-02-21T12:37:11;2.70;;;1.90;;
81367;SDS011;70823;50.056;14.398;2024-02-21T12:39:38;4.15;;;2.00;;
81367;SDS011;70823;50.056;14.398;2024-02-21T12:42:03;2.90;;;1.60;;
81367;SDS011;70823;50.056;14.398;2024-02-21T12:44:29;3.08;;;1.83;;
81367;SDS011;70823;50.056;14.398;2024-02-21T12:46:54;2.90;;;1.73;;
81367;SDS011;70823;50.056;14.398;2024-02-21T12:49:19;4.07;;;1.80;;
81367;SDS011;70823;50.056;14.398;2024-02-21T12:51:45;2.77;;;1.70;;
81367;SDS011;70823;50.056;14.398;2024-02-21T12:54:13;3.78;;;2.13;;
81367;SDS011;70823;50.056;14.398;2024-02-21T12:56:38;3.78;;;2.03;;
81367;SDS011;70823;50.056;14.398;2024-02-21T12:59:05;4.05;;;1.90;;
81367;SDS011;70823;50.056;14.398;2024-02-21T13:01:30;3.83;;;1.70;;
81367;SDS011;70823;50.056;14.398;2024-02-21T13:03:55;3.20;;;1.90;;
81367;SDS011;70823;50.056;14.398;2024-02-21T13:06:22;2.83;;;1.77;;
81367;SDS011;70823;50.056;14.398;2024-02-21T13:08:47;3.47;;;2.00;;
81367;SDS011;70823;50.056;14.398;2024-02-21T13:11:13;3.20;;;1.90;;
81367;SDS011;70823;50.056;14.398;2024-02-21T13:13:38;2.45;;;1.65;;
81367;SDS011;70823;50.056;14.398;2024-02-21T13:16:03;5.07;;;2.07;;
81367;SDS011;70823;50.056;14.398;2024-02-21T13:18:29;3.08;;;1.67;;
81367;SDS011;70823;50.056;14.398;2024-02-21T13:20:54;3.17;;;1.90;;
81367;SDS011;70823;50.056;14.398;2024-02-21T13:23:20;5.80;;;1.90;;
81367;SDS011;70823;50.056;14.398;2024-02-21T13:28:14;3.80;;;1.73;;
81367;SDS011;70823;50.056;14.398;2024-02-21T13:30:41;3.40;;;1.70;;
81367;SDS011;70823;50.056;14.398;2024-02-21T13:33:06;2.90;;;1.63;;
81367;SDS011;70823;50.056;14.398;2024-02-21T13:35:32;3.72;;;1.80;;
81367;SDS011;70823;50.056;14.398;2024-02-21T13:37:57;2.93;;;2.00;;
81367;SDS011;70823;50.056;14.398;2024-02-21T13:40:22;3.27;;;1.80;;
81367;SDS011;70823;50.056;14.398;2024-02-21T13:42:48;3.93;;;1.70;;
81367;SDS011;70823;50.056;14.398;2024-02-21T13:45:14;3.17;;;1.80;;
81367;SDS011;70823;50.056;14.398;2024-02-21T13:47:40;2.40;;;1.50;;
81367;SDS011;70823;50.056;14.398;2024-02-21T13:50:05;3.50;;;1.60;;
81367;SDS011;70823;50.056;14.398;2024-02-21T13:52:35;4.38;;;2.13;;
81367;SDS011;70823;50.056;14.398;2024-02-21T13:55:01;3.00;;;1.73;;
81367;SDS011;70823;50.056;14.398;2024-02-21T13:57:26;3.57;;;1.70;;
81367;SDS011;70823;50.056;14.398;2024-02-21T13:59:51;3.90;;;1.80;;
81367;SDS011;70823;50.056;14.398;2024-02-21T14:02:16;3.37;;;1.73;;
81367;SDS011;70823;50.056;14.398;2024-02-21T14:04:42;2.85;;;1.67;;
81367;SDS011;70823;50.056;14.398;2024-02-21T14:07:07;4.17;;;2.00;;
81367;SDS011;70823;50.056;14.398;2024-02-21T14:09:33;3.33;;;1.70;;
81367;SDS011;70823;50.056;14.398;2024-02-21T14:11:58;2.77;;;1.53;;
81367;SDS011;70823;50.056;14.398;2024-02-21T14:14:24;3.37;;;1.67;;
81367;SDS011;70823;50.056;14.398;2024-02-21T14:16:49;3.30;;;1.90;;
81367;SDS011;70823;50.056;14.398;2024-02-21T14:19:14;2.87;;;1.60;;
81367;SDS011;70823;50.056;14.398;2024-02-21T14:21:40;2.75;;;1.58;;
81367;SDS011;70823;50.056;14.398;2024-02-21T14:24:05;3.90;;;1.92;;
81367;SDS011;70823;50.056;14.398;2024-02-21T14:26:31;3.75;;;2.20;;
81367;SDS011;70823;50.056;14.398;2024-02-21T14:28:57;2.90;;;1.70;;
81367;SDS011;70823;50.056;14.398;2024-02-21T14:31:22;4.07;;;1.95;;
81367;SDS011;70823;50.056;14.398;2024-02-21T14:33:48;2.88;;;1.70;;
81367;SDS011;70823;50.056;14.398;2024-02-21T14:36:13;2.97;;;1.80;;
81367;SDS011;70823;50.056;14.398;2024-02-21T14:38:40;2.83;;;1.73;;
81367;SDS011;70823;50.056;14.398;2024-02-21T14:41:06;3.47;;;1.88;;
81367;SDS011;70823;50.056;14.398;2024-02-21T14:43:31;3.20;;;1.90;;